Time;durP1;ratioP1;P1;durP2;ratioP2;P2;SDS_P1;SDS_P2;PMS_P1;PMS_P2;Temp;Humidity;BMP_temperature;BMP_pressure;BME280_temperature;BME280_humidity;BME280_pressure;Samples;Min_cycle;Max_cycle;Signal;HPM_P1;HPM_P2
2021/12/14 00:01:44;;;;;;;0.40;0.40;;;;;;;;;;1862376;77;26300;-41
2021/12/14 00:04:17;;;;;;;0.30;0.30;;;;;;;;;;1862323;76;26337;-40
2021/12/14 00:06:45;;;;;;;0.30;0.30;;;;;;;;;;1861754;76;26231;-40
2021/12/14 00:09:23;;;;;;;0.30;0.30;;;;;;;;;;1871565;76;26350;-40
2021/12/14 00:16:51;;;;;;;0.30;0.30;;;;;;;;;;1883463;76;25927;-41
2021/12/14 00:19:18;;;;;;;0.20;0.20;;;;;;;;;;1886534;76;26729;-41
2021/12/14 00:21:52;;;;;;;1.55;0.30;;;;;;;;;;1881359;74;26308;-40
2021/12/14 00:24:19;;;;;;;0.78;0.20;;;;;;;;;;1888678;76;26345;-40
2021/12/14 00:26:51;;;;;;;0.95;0.30;;;;;;;;;;1886632;76;26234;-42
2021/12/14 00:29:20;;;;;;;1.77;0.30;;;;;;;;;;1874593;76;26797;-41
2021/12/14 00:31:48;;;;;;;0.30;0.30;;;;;;;;;;1874709;76;26270;-40
2021/12/14 00:34:22;;;;;;;0.20;0.20;;;;;;;;;;1884652;76;26575;-40
2021/12/14 00:36:45;;;;;;;0.20;0.20;;;;;;;;;;1885414;76;26263;-40
2021/12/14 00:39:12;;;;;;;0.20;0.20;;;;;;;;;;1863456;76;26360;-40
2021/12/14 00:41:40;;;;;;;0.20;0.20;;;;;;;;;;1879433;76;26214;-40
2021/12/14 00:44:08;;;;;;;1.30;0.23;;;;;;;;;;1864826;76;26287;-40
2021/12/14 00:46:36;;;;;;;1.22;0.30;;;;;;;;;;1867055;76;26435;-41
2021/12/14 00:49:05;;;;;;;0.30;0.30;;;;;;;;;;1872102;76;26238;-40
2021/12/14 00:51:33;;;;;;;0.20;0.20;;;;;;;;;;1872478;76;26295;-40
2021/12/14 00:54:01;;;;;;;0.20;0.20;;;;;;;;;;1863825;76;26715;-40
2021/12/14 00:56:28;;;;;;;0.53;0.23;;;;;;;;;;1880787;76;27215;-41
2021/12/14 00:58:56;;;;;;;0.17;0.10;;;;;;;;;;1881539;76;26323;-40
2021/12/14 01:01:24;;;;;;;0.10;0.10;;;;;;;;;;1876553;76;26300;-40
2021/12/14 01:03:53;;;;;;;1.85;0.15;;;;;;;;;;1867376;76;26307;-40
2021/12/14 01:06:22;;;;;;;0.10;0.10;;;;;;;;;;1881551;76;26277;-39
2021/12/14 01:08:50;;;;;;;0.57;0.20;;;;;;;;;;1862130;76;26336;-41
2021/12/14 01:11:22;;;;;;;0.15;0.15;;;;;;;;;;1852557;75;26254;-39
2021/12/14 01:13:56;;;;;;;0.30;0.30;;;;;;;;;;1853288;77;26272;-39
2021/12/14 01:16:33;;;;;;;1.17;0.17;;;;;;;;;;1852196;77;26793;-39
2021/12/14 01:19:01;;;;;;;0.10;0.10;;;;;;;;;;1843106;77;26334;-39
2021/12/14 01:21:41;;;;;;;0.20;0.20;;;;;;;;;;1851903;77;26331;-40
2021/12/14 01:24:02;;;;;;;0.30;0.23;;;;;;;;;;1847247;75;26846;-40
2021/12/14 01:26:23;;;;;;;0.10;0.10;;;;;;;;;;1863544;75;26315;-40
2021/12/14 01:28:51;;;;;;;0.13;0.13;;;;;;;;;;1865098;75;27458;-40
2021/12/14 01:31:28;;;;;;;0.23;0.20;;;;;;;;;;1851122;77;26273;-39
2021/12/14 01:33:51;;;;;;;0.20;0.20;;;;;;;;;;1864406;75;26292;-40
2021/12/14 01:41:49;;;;;;;0.10;0.10;;;;;;;;;;1852699;75;26750;-39
2021/12/14 01:44:17;;;;;;;0.33;0.13;;;;;;;;;;1841535;75;26724;-39
2021/12/14 01:46:55;;;;;;;0.20;0.20;;;;;;;;;;1838475;75;26256;-39
2021/12/14 01:49:24;;;;;;;0.10;0.10;;;;;;;;;;1846349;75;26272;-41
2021/12/14 01:51:53;;;;;;;0.30;0.20;;;;;;;;;;1857173;77;26272;-41
2021/12/14 01:54:21;;;;;;;0.10;0.10;;;;;;;;;;1857900;75;27557;-40
2021/12/14 01:56:49;;;;;;;0.13;0.13;;;;;;;;;;1838217;77;26276;-42
2021/12/14 01:59:22;;;;;;;0.10;0.10;;;;;;;;;;1853506;77;26799;-40
2021/12/14 02:01:56;;;;;;;0.23;0.23;;;;;;;;;;1851111;75;26444;-40
2021/12/14 02:04:17;;;;;;;0.10;0.10;;;;;;;;;;1840273;75;26360;-39
2021/12/14 02:06:45;;;;;;;0.10;0.10;;;;;;;;;;1856716;75;26741;-41
2021/12/14 02:09:14;;;;;;;1.02;0.23;;;;;;;;;;1858838;75;26308;-40
2021/12/14 02:11:43;;;;;;;0.45;0.20;;;;;;;;;;1872409;76;26264;-40
2021/12/14 02:14:10;;;;;;;0.10;0.10;;;;;;;;;;1889578;75;26288;-40
2021/12/14 02:16:38;;;;;;;0.10;0.10;;;;;;;;;;1867436;76;26724;-40
2021/12/14 02:19:07;;;;;;;0.10;0.10;;;;;;;;;;1865728;76;26210;-39
2021/12/14 02:21:34;;;;;;;0.20;0.20;;;;;;;;;;1868066;76;26287;-40
2021/12/14 02:24:04;;;;;;;0.15;0.15;;;;;;;;;;1876756;76;26349;-39
2021/12/14 02:26:32;;;;;;;0.20;0.20;;;;;;;;;;1867803;76;26346;-41
2021/12/14 02:29:01;;;;;;;0.15;0.15;;;;;;;;;;1878491;76;26335;-41
2021/12/14 02:31:30;;;;;;;0.20;0.20;;;;;;;;;;1874535;76;26355;-39
2021/12/14 02:33:59;;;;;;;0.30;0.30;;;;;;;;;;1881130;76;26285;-40
2021/12/14 02:36:28;;;;;;;0.10;0.10;;;;;;;;;;1882149;76;26720;-41
2021/12/14 02:39:07;;;;;;;0.10;0.10;;;;;;;;;;1874271;76;26429;-40
2021/12/14 02:41:33;;;;;;;0.20;0.20;;;;;;;;;;1872766;76;26817;-40
2021/12/14 02:44:01;;;;;;;0.28;0.25;;;;;;;;;;1875055;76;26279;-41
2021/12/14 02:46:30;;;;;;;0.20;0.20;;;;;;;;;;1859334;76;26295;-40
2021/12/14 02:48:59;;;;;;;0.10;0.10;;;;;;;;;;1863029;76;26264;-40
2021/12/14 02:51:27;;;;;;;0.10;0.10;;;;;;;;;;1876459;76;26342;-40
2021/12/14 02:53:56;;;;;;;0.20;0.10;;;;;;;;;;1857478;76;26225;-40
2021/12/14 02:56:25;;;;;;;0.15;0.10;;;;;;;;;;1866519;76;26345;-41
2021/12/14 02:58:54;;;;;;;0.20;0.20;;;;;;;;;;1876793;76;26265;-40
2021/12/14 03:01:21;;;;;;;0.17;0.08;;;;;;;;;;1865754;76;26291;-39
2021/12/14 03:03:49;;;;;;;0.10;0.10;;;;;;;;;;1863745;76;26837;-39
2021/12/14 03:06:21;;;;;;;0.30;0.10;;;;;;;;;;1863348;76;26319;-39
2021/12/14 03:08:56;;;;;;;0.10;0.10;;;;;;;;;;1875667;76;26387;-41
2021/12/14 03:11:15;;;;;;;0.00;0.00;;;;;;;;;;1876148;76;26413;-39
2021/12/14 03:13:44;;;;;;;0.10;0.10;;;;;;;;;;1873744;76;26747;-39
2021/12/14 03:16:12;;;;;;;0.03;0.03;;;;;;;;;;1869265;76;26624;-40
2021/12/14 03:18:41;;;;;;;0.30;0.15;;;;;;;;;;1874799;76;26348;-40
2021/12/14 03:21:10;;;;;;;0.10;0.10;;;;;;;;;;1870155;76;26279;-40
2021/12/14 03:23:45;;;;;;;0.45;0.13;;;;;;;;;;1860356;76;26731;-40
2021/12/14 03:26:14;;;;;;;0.75;0.10;;;;;;;;;;1882245;76;26320;-40
2021/12/14 03:28:45;;;;;;;0.10;0.10;;;;;;;;;;1880857;76;26269;-40
2021/12/14 03:31:12;;;;;;;0.10;0.10;;;;;;;;;;1887369;76;26372;-39
2021/12/14 03:33:42;;;;;;;0.10;0.10;;;;;;;;;;1893590;74;26285;-40
2021/12/14 03:36:11;;;;;;;2.17;0.15;;;;;;;;;;1867725;76;26317;-39
2021/12/14 03:38:43;;;;;;;0.10;0.10;;;;;;;;;;1890038;76;26343;-39
2021/12/14 03:41:12;;;;;;;0.10;0.10;;;;;;;;;;1863861;76;26326;-40
2021/12/14 03:43:41;;;;;;;0.10;0.10;;;;;;;;;;1860624;76;26288;-39
2021/12/14 03:46:10;;;;;;;0.03;0.03;;;;;;;;;;1870444;76;26254;-39
2021/12/14 03:48:38;;;;;;;0.03;0.03;;;;;;;;;;1886737;76;26292;-39
2021/12/14 03:51:06;;;;;;;0.10;0.10;;;;;;;;;;1889821;76;26277;-39
2021/12/14 03:53:33;;;;;;;0.20;0.20;;;;;;;;;;1880206;76;26285;-39
2021/12/14 03:56:02;;;;;;;0.37;0.23;;;;;;;;;;1862797;76;26282;-38
2021/12/14 03:58:35;;;;;;;0.10;0.10;;;;;;;;;;1861888;76;26691;-39
2021/12/14 04:01:07;;;;;;;0.10;0.10;;;;;;;;;;1879843;76;26268;-39
2021/12/14 04:03:35;;;;;;;0.13;0.13;;;;;;;;;;1897410;74;26660;-41
2021/12/14 04:06:04;;;;;;;0.33;0.20;;;;;;;;;;1889546;76;26273;-42
2021/12/14 04:08:31;;;;;;;0.10;0.10;;;;;;;;;;1867593;76;26273;-40
2021/12/14 04:11:00;;;;;;;0.10;0.10;;;;;;;;;;1868075;76;26764;-40
2021/12/14 04:13:29;;;;;;;0.10;0.10;;;;;;;;;;1849944;76;26760;-40
2021/12/14 04:15:56;;;;;;;0.00;0.00;;;;;;;;;;1843233;76;26749;-39
2021/12/14 04:18:25;;;;;;;0.00;0.00;;;;;;;;;;1861496;76;26312;-39
2021/12/14 04:20:55;;;;;;;0.10;0.10;;;;;;;;;;1849364;77;26319;-41
2021/12/14 04:23:23;;;;;;;0.10;0.10;;;;;;;;;;1851999;76;26392;-40
2021/12/14 04:25:52;;;;;;;0.10;0.10;;;;;;;;;;1863076;77;26230;-40
2021/12/14 04:28:21;;;;;;;0.10;0.10;;;;;;;;;;1848317;77;26272;-40
2021/12/14 04:30:48;;;;;;;0.10;0.10;;;;;;;;;;1853593;76;26277;-40
2021/12/14 04:33:17;;;;;;;1.95;0.50;;;;;;;;;;1861673;76;26754;-40
2021/12/14 04:35:46;;;;;;;0.10;0.10;;;;;;;;;;1845344;76;26225;-41
2021/12/14 04:38:21;;;;;;;0.10;0.10;;;;;;;;;;1848985;77;26890;-41
2021/12/14 04:54:24;;;;;;;0.15;0.15;;;;;;;;;;1866535;77;26360;-41
2021/12/14 04:56:52;;;;;;;0.10;0.10;;;;;;;;;;1863143;77;26268;-40
2021/12/14 04:59:23;;;;;;;0.30;0.20;;;;;;;;;;1871333;76;26265;-40
2021/12/14 05:01:50;;;;;;;0.10;0.10;;;;;;;;;;1844332;76;26339;-40
2021/12/14 05:04:21;;;;;;;0.20;0.10;;;;;;;;;;1848089;76;26764;-40
2021/12/14 05:06:55;;;;;;;0.13;0.13;;;;;;;;;;1851457;77;26311;-41
2021/12/14 05:09:23;;;;;;;0.10;0.10;;;;;;;;;;1846645;77;26777;-40
2021/12/14 05:11:52;;;;;;;0.10;0.10;;;;;;;;;;1878839;75;26340;-40
2021/12/14 05:14:20;;;;;;;0.20;0.20;;;;;;;;;;1881809;75;26843;-41
2021/12/14 05:16:47;;;;;;;0.10;0.10;;;;;;;;;;1878000;75;26277;-40
2021/12/14 05:19:15;;;;;;;5.03;0.30;;;;;;;;;;1884747;75;26807;-40
2021/12/14 05:21:44;;;;;;;0.20;0.20;;;;;;;;;;1878382;75;26339;-40
2021/12/14 05:24:13;;;;;;;0.17;0.17;;;;;;;;;;1866040;75;27045;-40
2021/12/14 05:26:40;;;;;;;0.30;0.30;;;;;;;;;;1896084;74;26347;-39
2021/12/14 05:29:10;;;;;;;0.60;0.20;;;;;;;;;;1890454;74;26308;-42
2021/12/14 05:31:44;;;;;;;0.20;0.20;;;;;;;;;;1881311;75;26794;-40
2021/12/14 05:34:12;;;;;;;0.20;0.15;;;;;;;;;;1870978;75;26376;-41
2021/12/14 05:36:40;;;;;;;0.20;0.20;;;;;;;;;;1881651;75;26662;-41
2021/12/14 05:39:34;;;;;;;0.20;0.20;;;;;;;;;;1889389;75;26294;-43
2021/12/14 05:44:34;;;;;;;0.10;0.10;;;;;;;;;;1881915;75;26283;-40
2021/12/14 05:47:03;;;;;;;0.60;0.13;;;;;;;;;;1866422;75;26274;-40
2021/12/14 05:49:30;;;;;;;0.13;0.13;;;;;;;;;;1867830;75;26342;-40
2021/12/14 05:51:59;;;;;;;0.20;0.20;;;;;;;;;;1868827;75;26302;-40
2021/12/14 05:54:28;;;;;;;0.20;0.20;;;;;;;;;;1872233;75;26699;-40
2021/12/14 05:56:56;;;;;;;0.10;0.10;;;;;;;;;;1873436;75;26925;-40
2021/12/14 05:59:27;;;;;;;0.30;0.30;;;;;;;;;;1889346;75;26800;-40
2021/12/14 06:01:55;;;;;;;0.20;0.20;;;;;;;;;;1883826;75;26335;-41
2021/12/14 06:04:24;;;;;;;0.20;0.20;;;;;;;;;;1891751;75;26834;-40
2021/12/14 06:06:52;;;;;;;0.17;0.17;;;;;;;;;;1890317;75;26716;-40
2021/12/14 06:09:23;;;;;;;0.20;0.20;;;;;;;;;;1879648;74;26373;-40
2021/12/14 06:11:52;;;;;;;0.57;0.20;;;;;;;;;;1888142;74;26799;-40
2021/12/14 06:14:20;;;;;;;1.37;0.30;;;;;;;;;;1849784;77;26819;-41
2021/12/14 06:16:49;;;;;;;0.30;0.30;;;;;;;;;;1853243;76;26800;-42
2021/12/14 06:19:18;;;;;;;0.28;0.28;;;;;;;;;;1849456;76;26286;-40
2021/12/14 06:21:46;;;;;;;3.35;0.42;;;;;;;;;;1856127;76;26349;-40
2021/12/14 06:24:14;;;;;;;0.40;0.40;;;;;;;;;;1843861;76;26785;-41
2021/12/14 06:26:43;;;;;;;0.40;0.40;;;;;;;;;;1839768;77;26332;-41
2021/12/14 06:29:12;;;;;;;0.57;0.30;;;;;;;;;;1858361;76;26265;-40
2021/12/14 06:31:41;;;;;;;1.00;0.28;;;;;;;;;;1844824;76;26346;-40
2021/12/14 06:34:13;;;;;;;0.62;0.30;;;;;;;;;;1850701;75;26309;-40
2021/12/14 06:37:19;;;;;;;2.33;0.42;;;;;;;;;;1837612;75;26762;-40
2021/12/14 06:39:29;;;;;;;0.30;0.30;;;;;;;;;;1852051;75;26686;-40
2021/12/14 06:42:06;;;;;;;2.25;0.50;;;;;;;;;;1849106;75;26254;-40
2021/12/14 06:44:34;;;;;;;0.85;0.40;;;;;;;;;;1857729;76;26280;-40
2021/12/14 06:47:01;;;;;;;1.70;0.50;;;;;;;;;;1858611;76;26640;-41
2021/12/14 06:49:28;;;;;;;0.50;0.50;;;;;;;;;;1861966;76;26323;-41
2021/12/14 06:51:56;;;;;;;0.90;0.40;;;;;;;;;;1862507;76;26705;-40
2021/12/14 06:54:26;;;;;;;1.55;0.30;;;;;;;;;;1863379;75;26388;-37
2021/12/14 06:56:54;;;;;;;0.42;0.42;;;;;;;;;;1865200;77;26817;-37
2021/12/14 06:59:22;;;;;;;0.37;0.37;;;;;;;;;;1859266;77;26706;-36
2021/12/14 07:01:54;;;;;;;2.02;0.40;;;;;;;;;;1864592;76;26340;-37
2021/12/14 07:04:29;;;;;;;2.27;0.50;;;;;;;;;;1861950;77;27037;-37
2021/12/14 07:06:57;;;;;;;2.25;0.42;;;;;;;;;;1862607;77;26293;-37
2021/12/14 07:09:26;;;;;;;0.90;0.37;;;;;;;;;;1860586;75;26343;-37
2021/12/14 07:12:04;;;;;;;0.30;0.30;;;;;;;;;;1866080;76;26689;-38
2021/12/14 07:14:33;;;;;;;0.40;0.30;;;;;;;;;;1886065;74;26284;-38
2021/12/14 07:17:02;;;;;;;0.85;0.40;;;;;;;;;;1884930;74;26760;-39
2021/12/14 07:19:43;;;;;;;0.75;0.30;;;;;;;;;;1863769;76;26288;-39
2021/12/14 07:22:33;;;;;;;1.35;0.30;;;;;;;;;;1884987;74;26698;-37
2021/12/14 07:25:15;;;;;;;2.20;0.40;;;;;;;;;;1880698;76;26408;-39
2021/12/14 07:27:41;;;;;;;0.60;0.45;;;;;;;;;;1883450;76;26331;-39
2021/12/14 07:30:10;;;;;;;2.22;0.40;;;;;;;;;;1873103;75;28636;-46
2021/12/14 07:32:39;;;;;;;1.25;0.30;;;;;;;;;;1882493;74;26612;-41
2021/12/14 07:35:10;;;;;;;0.40;0.40;;;;;;;;;;1885812;74;26218;-39
2021/12/14 07:37:38;;;;;;;3.85;0.50;;;;;;;;;;1855004;74;28271;-38
2021/12/14 07:40:05;;;;;;;0.30;0.30;;;;;;;;;;1891700;76;26288;-38
2021/12/14 07:42:33;;;;;;;0.78;0.30;;;;;;;;;;1886356;76;26289;-38
2021/12/14 07:45:00;;;;;;;4.80;0.50;;;;;;;;;;1888591;76;26734;-43
2021/12/14 07:47:27;;;;;;;1.47;0.35;;;;;;;;;;1878668;76;26638;-37
2021/12/14 07:49:55;;;;;;;3.05;0.40;;;;;;;;;;1887218;76;26265;-37
2021/12/14 07:52:28;;;;;;;1.57;0.30;;;;;;;;;;1884859;76;26257;-37
2021/12/14 07:54:58;;;;;;;0.95;0.30;;;;;;;;;;1887701;76;26293;-37
2021/12/14 07:57:27;;;;;;;0.45;0.30;;;;;;;;;;1887847;76;26295;-38
2021/12/14 07:59:56;;;;;;;1.47;0.30;;;;;;;;;;1886922;76;26401;-40
2021/12/14 08:02:25;;;;;;;0.68;0.35;;;;;;;;;;1885335;76;26270;-38
2021/12/14 08:04:53;;;;;;;0.28;0.28;;;;;;;;;;1890921;76;26350;-36
2021/12/14 08:07:22;;;;;;;0.30;0.23;;;;;;;;;;1885188;76;26256;-36
2021/12/14 08:09:51;;;;;;;0.40;0.40;;;;;;;;;;1885279;76;26312;-37
2021/12/14 08:12:38;;;;;;;0.30;0.30;;;;;;;;;;1884261;75;26785;-36
2021/12/14 08:15:09;;;;;;;0.30;0.30;;;;;;;;;;1860279;77;26341;-37
2021/12/14 08:17:37;;;;;;;0.72;0.30;;;;;;;;;;1863770;76;26639;-36
2021/12/14 08:20:05;;;;;;;0.55;0.30;;;;;;;;;;1857350;76;26198;-38
2021/12/14 08:22:37;;;;;;;1.50;0.65;;;;;;;;;;1858266;76;26324;-37
2021/12/14 08:25:06;;;;;;;1.55;0.30;;;;;;;;;;1860528;77;26269;-36
2021/12/14 08:27:33;;;;;;;1.20;0.13;;;;;;;;;;1858319;75;26268;-38
2021/12/14 08:30:02;;;;;;;1.65;0.30;;;;;;;;;;1863191;75;27318;-39
2021/12/14 08:32:31;;;;;;;0.30;0.30;;;;;;;;;;1852882;77;26885;-37
2021/12/14 08:35:00;;;;;;;0.30;0.30;;;;;;;;;;1856409;77;26775;-37
2021/12/14 08:37:29;;;;;;;0.85;0.20;;;;;;;;;;1857769;77;26253;-36
2021/12/14 08:40:00;;;;;;;6.42;0.40;;;;;;;;;;1854995;76;26344;-36
2021/12/14 08:42:36;;;;;;;0.47;0.20;;;;;;;;;;1864525;77;26261;-36
2021/12/14 08:45:01;;;;;;;0.98;0.30;;;;;;;;;;1857030;76;26218;-38
2021/12/14 08:47:30;;;;;;;0.23;0.23;;;;;;;;;;1853914;77;26564;-35
2021/12/14 08:50:00;;;;;;;0.20;0.20;;;;;;;;;;1864426;77;26258;-35
2021/12/14 08:52:29;;;;;;;2.55;0.47;;;;;;;;;;1861816;77;26258;-35
2021/12/14 08:54:58;;;;;;;3.73;0.50;;;;;;;;;;1848620;76;28122;-39
2021/12/14 08:57:28;;;;;;;2.72;0.30;;;;;;;;;;1864149;76;26355;-35
2021/12/14 08:59:57;;;;;;;3.35;0.50;;;;;;;;;;1862763;77;26872;-34
2021/12/14 09:02:26;;;;;;;1.20;0.30;;;;;;;;;;1863829;77;26407;-36
2021/12/14 09:04:55;;;;;;;6.45;0.50;;;;;;;;;;1850316;77;26290;-34
2021/12/14 09:07:24;;;;;;;0.85;0.30;;;;;;;;;;1862559;75;26258;-33
2021/12/14 09:09:53;;;;;;;0.30;0.30;;;;;;;;;;1843345;75;26261;-36
2021/12/14 09:12:24;;;;;;;0.33;0.30;;;;;;;;;;1863176;75;26336;-35
2021/12/14 09:14:51;;;;;;;0.30;0.30;;;;;;;;;;1876759;75;26321;-35
2021/12/14 09:17:22;;;;;;;4.12;0.28;;;;;;;;;;1894741;75;27402;-39
2021/12/14 09:19:50;;;;;;;1.82;0.30;;;;;;;;;;1890659;75;26528;-34
2021/12/14 09:22:19;;;;;;;0.57;0.40;;;;;;;;;;1895199;75;26261;-34
2021/12/14 09:24:48;;;;;;;0.57;0.23;;;;;;;;;;1887243;75;26331;-36
2021/12/14 09:27:16;;;;;;;0.20;0.20;;;;;;;;;;1890510;75;26248;-34
2021/12/14 09:29:44;;;;;;;0.20;0.20;;;;;;;;;;1890066;75;26269;-35
2021/12/14 09:32:14;;;;;;;0.20;0.20;;;;;;;;;;1890735;75;26745;-34
2021/12/14 09:34:42;;;;;;;1.45;0.30;;;;;;;;;;1891744;75;26295;-35
2021/12/14 09:37:10;;;;;;;0.20;0.20;;;;;;;;;;1893045;75;26253;-38
2021/12/14 09:39:45;;;;;;;10.43;0.75;;;;;;;;;;1895452;75;26650;-35
2021/12/14 09:42:14;;;;;;;2.67;0.20;;;;;;;;;;1891326;75;26292;-36
2021/12/14 09:44:42;;;;;;;0.20;0.20;;;;;;;;;;1894793;75;26293;-36
2021/12/14 09:47:11;;;;;;;0.20;0.20;;;;;;;;;;1890289;74;26209;-33
2021/12/14 09:49:38;;;;;;;0.30;0.30;;;;;;;;;;1891726;75;26323;-35
2021/12/14 09:52:08;;;;;;;0.65;0.30;;;;;;;;;;1894443;75;26327;-35
2021/12/14 09:54:37;;;;;;;1.17;0.20;;;;;;;;;;1874817;75;26691;-36
2021/12/14 09:57:12;;;;;;;0.28;0.28;;;;;;;;;;1893620;75;26725;-35
2021/12/14 09:59:40;;;;;;;0.20;0.20;;;;;;;;;;1867240;75;26333;-35
2021/12/14 10:02:09;;;;;;;0.28;0.28;;;;;;;;;;1889543;75;26757;-36
2021/12/14 10:04:38;;;;;;;0.20;0.20;;;;;;;;;;1888156;75;26273;-32
2021/12/14 10:07:08;;;;;;;0.20;0.20;;;;;;;;;;1885153;75;26304;-33
2021/12/14 10:09:41;;;;;;;0.33;0.33;;;;;;;;;;1891363;75;26688;-37
2021/12/14 10:12:30;;;;;;;0.20;0.20;;;;;;;;;;1886672;75;26422;-34
2021/12/14 10:14:47;;;;;;;0.30;0.30;;;;;;;;;;1832932;75;26318;-36
2021/12/14 10:17:16;;;;;;;1.75;0.28;;;;;;;;;;1822331;78;26821;-38
2021/12/14 10:19:44;;;;;;;1.45;0.20;;;;;;;;;;1822559;77;26406;-39
2021/12/14 10:22:13;;;;;;;0.20;0.20;;;;;;;;;;1830727;78;27317;-33
2021/12/14 10:24:40;;;;;;;0.15;0.15;;;;;;;;;;1825056;77;26715;-35
2021/12/14 10:27:09;;;;;;;0.20;0.20;;;;;;;;;;1828602;77;26200;-34
2021/12/14 10:29:36;;;;;;;0.20;0.20;;;;;;;;;;1836498;77;26267;-34
2021/12/14 10:32:05;;;;;;;0.20;0.20;;;;;;;;;;1831553;77;26647;-37
2021/12/14 10:34:35;;;;;;;0.23;0.23;;;;;;;;;;1813377;77;26279;-36
2021/12/14 10:37:10;;;;;;;0.85;0.20;;;;;;;;;;1829676;78;26283;-41
2021/12/14 10:44:50;;;;;;;0.10;0.10;;;;;;;;;;1826818;77;26398;-36
2021/12/14 10:47:18;;;;;;;1.85;0.80;;;;;;;;;;1830428;77;26351;-34
2021/12/14 10:49:46;;;;;;;2.62;0.30;;;;;;;;;;1817812;77;26759;-35
2021/12/14 10:52:15;;;;;;;3.02;0.37;;;;;;;;;;1844368;77;26263;-37
2021/12/14 10:54:44;;;;;;;0.85;0.37;;;;;;;;;;1829894;78;26380;-34
2021/12/14 10:57:13;;;;;;;0.72;0.30;;;;;;;;;;1826314;78;26322;-35
2021/12/14 10:59:42;;;;;;;0.20;0.20;;;;;;;;;;1822241;77;26231;-37
2021/12/14 11:02:09;;;;;;;0.33;0.33;;;;;;;;;;1821903;77;26224;-36
2021/12/14 11:04:39;;;;;;;1.87;0.30;;;;;;;;;;1825954;77;26314;-34
2021/12/14 11:07:18;;;;;;;1.60;0.30;;;;;;;;;;1829556;77;26758;-35
2021/12/14 11:09:47;;;;;;;0.80;0.30;;;;;;;;;;1814505;77;28814;-35
2021/12/14 11:12:22;;;;;;;0.20;0.20;;;;;;;;;;1822178;77;26292;-36
2021/12/14 11:14:51;;;;;;;0.50;0.30;;;;;;;;;;1836095;75;38533;-38
2021/12/14 11:20:05;;;;;;;3.52;0.20;;;;;;;;;;1854174;76;26270;-37
2021/12/14 11:22:35;;;;;;;0.20;0.20;;;;;;;;;;1857493;75;26263;-39
2021/12/14 11:25:07;;;;;;;0.20;0.20;;;;;;;;;;1846928;77;26587;-40
2021/12/14 11:27:36;;;;;;;0.30;0.30;;;;;;;;;;1854532;76;26324;-35
2021/12/14 11:30:21;;;;;;;0.30;0.30;;;;;;;;;;1862021;76;26315;-35
2021/12/14 11:32:50;;;;;;;2.25;0.40;;;;;;;;;;1858741;75;26788;-35
2021/12/14 11:35:19;;;;;;;0.20;0.20;;;;;;;;;;1860219;76;27318;-35
2021/12/14 11:37:47;;;;;;;0.20;0.20;;;;;;;;;;1850538;76;26236;-35
2021/12/14 11:40:15;;;;;;;0.35;0.33;;;;;;;;;;1864085;76;26710;-34
2021/12/14 11:42:43;;;;;;;0.20;0.20;;;;;;;;;;1862252;76;26207;-38
2021/12/14 11:45:11;;;;;;;0.20;0.20;;;;;;;;;;1855804;77;26304;-37
2021/12/14 11:47:41;;;;;;;0.20;0.20;;;;;;;;;;1858376;76;26222;-36
2021/12/14 11:50:16;;;;;;;0.20;0.17;;;;;;;;;;1859505;76;26678;-38
2021/12/14 11:53:03;;;;;;;0.20;0.20;;;;;;;;;;1853421;76;28183;-36
2021/12/14 11:55:35;;;;;;;0.20;0.20;;;;;;;;;;1843747;77;28157;-36
2021/12/14 11:58:19;;;;;;;0.40;0.40;;;;;;;;;;1862106;77;26639;-35
2021/12/14 12:00:47;;;;;;;0.40;0.40;;;;;;;;;;1861030;76;26332;-36
2021/12/14 12:03:19;;;;;;;0.40;0.40;;;;;;;;;;1842671;77;26282;-34
2021/12/14 12:06:00;;;;;;;0.30;0.30;;;;;;;;;;1857720;77;26319;-36
2021/12/14 12:11:10;;;;;;;0.37;0.37;;;;;;;;;;1809613;76;26317;-37
2021/12/14 12:13:38;;;;;;;0.88;0.33;;;;;;;;;;1864283;77;26729;-35
2021/12/14 12:16:10;;;;;;;0.25;0.25;;;;;;;;;;1863155;75;26322;-38
2021/12/14 12:18:37;;;;;;;1.30;0.20;;;;;;;;;;1861752;77;26772;-35
2021/12/14 12:21:04;;;;;;;0.13;0.13;;;;;;;;;;1863006;76;26305;-35
2021/12/14 12:23:33;;;;;;;0.20;0.20;;;;;;;;;;1862894;77;26769;-33
2021/12/14 12:26:08;;;;;;;0.20;0.20;;;;;;;;;;1862394;75;26496;-34
2021/12/14 12:28:33;;;;;;;0.30;0.30;;;;;;;;;;1860527;77;26258;-35
2021/12/14 12:31:11;;;;;;;0.20;0.20;;;;;;;;;;1861446;77;26264;-41
2021/12/14 12:33:33;;;;;;;0.30;0.30;;;;;;;;;;1858243;77;26744;-38
2021/12/14 12:36:08;;;;;;;0.20;0.20;;;;;;;;;;1846003;77;26261;-35
2021/12/14 12:38:37;;;;;;;0.20;0.20;;;;;;;;;;1860099;76;26254;-32
2021/12/14 12:41:09;;;;;;;0.20;0.20;;;;;;;;;;1859128;77;26559;-32
2021/12/14 12:43:38;;;;;;;1.77;0.30;;;;;;;;;;1855045;75;26327;-37
2021/12/14 12:46:07;;;;;;;1.50;0.40;;;;;;;;;;1843678;77;28186;-35
2021/12/14 12:48:44;;;;;;;4.28;0.50;;;;;;;;;;1854801;76;26269;-35
2021/12/14 12:51:13;;;;;;;0.50;0.33;;;;;;;;;;1850260;77;26747;-38
2021/12/14 12:53:41;;;;;;;3.40;0.47;;;;;;;;;;1856894;75;26655;-36
2021/12/14 12:56:09;;;;;;;1.20;0.40;;;;;;;;;;1864344;77;26269;-36
2021/12/14 12:58:41;;;;;;;1.02;0.45;;;;;;;;;;1856867;76;26276;-35
2021/12/14 13:01:07;;;;;;;1.65;0.50;;;;;;;;;;1859510;77;26325;-35
2021/12/14 13:03:40;;;;;;;2.92;0.40;;;;;;;;;;1862908;76;26398;-36
2021/12/14 13:06:09;;;;;;;1.27;0.30;;;;;;;;;;1860980;76;26372;-35
2021/12/14 13:08:38;;;;;;;0.37;0.33;;;;;;;;;;1843966;77;26785;-35
2021/12/14 13:11:07;;;;;;;0.55;0.35;;;;;;;;;;1855164;76;26308;-36
2021/12/14 13:13:35;;;;;;;0.30;0.30;;;;;;;;;;1862213;76;26312;-35
2021/12/14 13:16:10;;;;;;;0.40;0.37;;;;;;;;;;1863643;76;26449;-35
2021/12/14 13:18:39;;;;;;;0.28;0.28;;;;;;;;;;1857161;76;26305;-36
2021/12/14 13:21:24;;;;;;;0.37;0.35;;;;;;;;;;1864323;76;26308;-36
2021/12/14 13:23:58;;;;;;;0.20;0.20;;;;;;;;;;1858409;76;26273;-36
2021/12/14 13:26:32;;;;;;;1.10;0.50;;;;;;;;;;1856223;76;26818;-36
2021/12/14 13:29:14;;;;;;;0.28;0.28;;;;;;;;;;1853085;76;28552;-36
2021/12/14 13:31:42;;;;;;;0.30;0.30;;;;;;;;;;1862648;77;26218;-36
2021/12/14 13:34:14;;;;;;;0.37;0.37;;;;;;;;;;1862579;76;26242;-39
2021/12/14 13:36:42;;;;;;;0.23;0.23;;;;;;;;;;1862196;76;26324;-39
2021/12/14 13:39:11;;;;;;;0.20;0.20;;;;;;;;;;1858057;75;26359;-35
2021/12/14 13:41:58;;;;;;;0.30;0.30;;;;;;;;;;1857291;77;26543;-36
2021/12/14 13:44:30;;;;;;;0.40;0.40;;;;;;;;;;1842945;77;26258;-34
2021/12/14 13:46:58;;;;;;;0.30;0.30;;;;;;;;;;1863582;76;26371;-34
2021/12/14 13:49:26;;;;;;;0.45;0.40;;;;;;;;;;1864134;76;27074;-38
2021/12/14 13:51:55;;;;;;;0.30;0.30;;;;;;;;;;1863558;76;26322;-33
2021/12/14 13:54:23;;;;;;;0.37;0.30;;;;;;;;;;1864795;76;26277;-36
2021/12/14 13:56:52;;;;;;;0.35;0.35;;;;;;;;;;1846378;75;26258;-33
2021/12/14 13:59:19;;;;;;;0.20;0.20;;;;;;;;;;1838419;77;26276;-36
2021/12/14 14:01:48;;;;;;;0.23;0.23;;;;;;;;;;1842812;76;26563;-36
2021/12/14 14:04:17;;;;;;;0.40;0.40;;;;;;;;;;1860738;76;26344;-41
2021/12/14 14:06:45;;;;;;;0.30;0.30;;;;;;;;;;1863288;76;26274;-37
2021/12/14 14:09:17;;;;;;;0.30;0.30;;;;;;;;;;1855507;76;26291;-37
2021/12/14 14:11:46;;;;;;;0.68;0.30;;;;;;;;;;1858455;75;26376;-36
2021/12/14 14:14:21;;;;;;;0.28;0.28;;;;;;;;;;1850045;75;26319;-36
2021/12/14 14:16:50;;;;;;;0.57;0.30;;;;;;;;;;1860313;76;26752;-38
2021/12/14 14:19:22;;;;;;;0.35;0.20;;;;;;;;;;1859638;75;26277;-37
2021/12/14 14:21:51;;;;;;;0.20;0.20;;;;;;;;;;1837558;75;26837;-36
2021/12/14 14:24:20;;;;;;;0.30;0.30;;;;;;;;;;1846178;75;26721;-36
2021/12/14 14:26:48;;;;;;;1.65;0.45;;;;;;;;;;1865255;76;26718;-37
2021/12/14 14:29:16;;;;;;;0.30;0.30;;;;;;;;;;1857661;77;26277;-38
2021/12/14 14:31:48;;;;;;;0.35;0.30;;;;;;;;;;1865464;77;26273;-36
2021/12/14 14:34:21;;;;;;;0.30;0.30;;;;;;;;;;1863286;76;26342;-37
2021/12/14 14:36:59;;;;;;;0.30;0.30;;;;;;;;;;1848967;75;26292;-37
2021/12/14 14:39:28;;;;;;;0.20;0.20;;;;;;;;;;1858576;75;26305;-36
2021/12/14 14:41:57;;;;;;;0.13;0.13;;;;;;;;;;1847110;77;26260;-38
2021/12/14 14:44:29;;;;;;;0.23;0.23;;;;;;;;;;1864175;76;26304;-37
2021/12/14 14:47:04;;;;;;;0.20;0.20;;;;;;;;;;1862386;77;26258;-37
2021/12/14 14:49:39;;;;;;;0.33;0.33;;;;;;;;;;1859327;76;26269;-35
2021/12/14 14:52:07;;;;;;;0.30;0.30;;;;;;;;;;1850594;76;26805;-33
2021/12/14 14:54:36;;;;;;;0.23;0.23;;;;;;;;;;1863636;77;26745;-33
2021/12/14 14:57:14;;;;;;;0.33;0.33;;;;;;;;;;1849201;76;26277;-33
2021/12/14 14:59:45;;;;;;;0.53;0.30;;;;;;;;;;1838078;76;26275;-33
2021/12/14 15:02:12;;;;;;;0.75;0.40;;;;;;;;;;1860243;77;26273;-33
2021/12/14 15:04:57;;;;;;;1.95;0.37;;;;;;;;;;1851407;77;26804;-33
2021/12/14 15:07:26;;;;;;;0.47;0.25;;;;;;;;;;1841514;77;26956;-33
2021/12/14 15:09:55;;;;;;;0.20;0.20;;;;;;;;;;1836834;76;26624;-33
2021/12/14 15:12:22;;;;;;;0.25;0.25;;;;;;;;;;1848127;76;26336;-33
2021/12/14 15:14:50;;;;;;;2.65;0.40;;;;;;;;;;1854249;77;26382;-33
2021/12/14 15:17:19;;;;;;;0.40;0.40;;;;;;;;;;1877944;76;26363;-33
2021/12/14 15:19:48;;;;;;;0.20;0.20;;;;;;;;;;1863366;76;26271;-33
2021/12/14 15:22:23;;;;;;;0.40;0.25;;;;;;;;;;1884734;76;26318;-33
2021/12/14 15:25:05;;;;;;;0.40;0.40;;;;;;;;;;1879696;76;26405;-33
2021/12/14 15:27:34;;;;;;;0.20;0.20;;;;;;;;;;1888979;74;26322;-33
2021/12/14 15:30:10;;;;;;;0.23;0.23;;;;;;;;;;1879108;76;26323;-33
2021/12/14 15:32:39;;;;;;;0.28;0.28;;;;;;;;;;1873783;76;26742;-34
2021/12/14 15:35:14;;;;;;;0.55;0.17;;;;;;;;;;1863117;76;26792;-34
2021/12/14 15:37:48;;;;;;;1.27;0.40;;;;;;;;;;1867985;76;26279;-34